sensor_id;sensor_type;location;lat;lon;timestamp;pressure;altitude;pressure_sealevel;temperature;humidity
13414;BME280;6778;48.136;11.386;2023-02-15T00:01:56;96668.31;;;-0.05;100.00
13414;BME280;6778;48.136;11.386;2023-02-15T00:04:27;96663.78;;;-0.12;100.00
13414;BME280;6778;48.136;11.386;2023-02-15T00:07:18;96668.53;;;-0.08;100.00
13414;BME280;6778;48.136;11.386;2023-02-15T00:09:49;96667.41;;;0.08;100.00
13414;BME280;6778;48.136;11.386;2023-02-15T00:12:19;96666.56;;;-0.04;100.00
13414;BME280;6778;48.136;11.386;2023-02-15T00:14:49;96652.63;;;-0.02;100.00
13414;BME280;6778;48.136;11.386;2023-02-15T00:17:20;96652.66;;;-0.13;100.00
13414;BME280;6778;48.136;11.386;2023-02-15T00:19:50;96656.50;;;-0.18;100.00
13414;BME280;6778;48.136;11.386;2023-02-15T00:22:22;96659.78;;;-0.16;100.00
13414;BME280;6778;48.136;11.386;2023-02-15T00:24:53;96659.44;;;-0.12;100.00
13414;BME280;6778;48.136;11.386;2023-02-15T00:27:25;96658.84;;;-0.26;100.00
13414;BME280;6778;48.136;11.386;2023-02-15T00:29:55;96663.66;;;-0.11;100.00
13414;BME280;6778;48.136;11.386;2023-02-15T00:32:30;96660.47;;;-0.37;100.00
13414;BME280;6778;48.136;11.386;2023-02-15T00:35:01;96655.47;;;-0.05;100.00
13414;BME280;6778;48.136;11.386;2023-02-15T00:37:34;96648.56;;;0.07;100.00
13414;BME280;6778;48.136;11.386;2023-02-15T00:40:05;96646.66;;;-0.02;100.00
13414;BME280;6778;48.136;11.386;2023-02-15T00:42:36;96647.47;;;-0.02;100.00
13414;BME280;6778;48.136;11.386;2023-02-15T00:45:08;96644.22;;;-0.04;100.00
13414;BME280;6778;48.136;11.386;2023-02-15T00:47:38;96644.66;;;-0.21;100.00
13414;BME280;6778;48.136;11.386;2023-02-15T00:50:09;96637.44;;;-0.05;100.00
13414;BME280;6778;48.136;11.386;2023-02-15T00:52:42;96632.03;;;-0.02;100.00
13414;BME280;6778;48.136;11.386;2023-02-15T00:55:11;96626.53;;;0.03;100.00
13414;BME280;6778;48.136;11.386;2023-02-15T00:57:42;96626.28;;;0.06;100.00
13414;BME280;6778;48.136;11.386;2023-02-15T01:00:13;96624.91;;;0.02;100.00
13414;BME280;6778;48.136;11.386;2023-02-15T01:02:43;96615.53;;;0.01;100.00
13414;BME280;6778;48.136;11.386;2023-02-15T01:05:13;96620.34;;;-0.06;100.00
13414;BME280;6778;48.136;11.386;2023-02-15T01:07:46;96617.88;;;-0.07;100.00
13414;BME280;6778;48.136;11.386;2023-02-15T01:10:18;96621.50;;;-0.21;100.00
13414;BME280;6778;48.136;11.386;2023-02-15T01:12:49;96613.09;;;-0.23;100.00
13414;BME280;6778;48.136;11.386;2023-02-15T01:15:19;96613.56;;;-0.18;100.00
13414;BME280;6778;48.136;11.386;2023-02-15T01:17:51;96620.47;;;-0.18;100.00
13414;BME280;6778;48.136;11.386;2023-02-15T01:20:25;96612.41;;;-0.25;100.00
13414;BME280;6778;48.136;11.386;2023-02-15T01:22:58;96610.97;;;-0.29;100.00
13414;BME280;6778;48.136;11.386;2023-02-15T01:25:29;96600.09;;;-0.21;100.00
13414;BME280;6778;48.136;11.386;2023-02-15T01:27:59;96609.22;;;-0.17;100.00
13414;BME280;6778;48.136;11.386;2023-02-15T01:30:29;96603.25;;;-0.29;100.00
13414;BME280;6778;48.136;11.386;2023-02-15T01:33:01;96597.50;;;-0.21;100.00
13414;BME280;6778;48.136;11.386;2023-02-15T01:35:32;96601.16;;;-0.24;100.00
13414;BME280;6778;48.136;11.386;2023-02-15T01:38:04;96597.28;;;-0.30;100.00
13414;BME280;6778;48.136;11.386;2023-02-15T01:40:36;96593.44;;;-0.35;100.00
13414;BME280;6778;48.136;11.386;2023-02-15T01:43:10;96595.06;;;-0.23;100.00
13414;BME280;6778;48.136;11.386;2023-02-15T01:45:40;96592.03;;;-0.17;100.00
13414;BME280;6778;48.136;11.386;2023-02-15T01:48:20;96593.22;;;-0.32;100.00
13414;BME280;6778;48.136;11.386;2023-02-15T01:50:55;96592.47;;;-0.34;100.00
13414;BME280;6778;48.136;11.386;2023-02-15T01:53:34;96598.59;;;-0.46;100.00
13414;BME280;6778;48.136;11.386;2023-02-15T01:56:11;96586.75;;;-0.49;100.00
13414;BME280;6778;48.136;11.386;2023-02-15T01:58:49;96582.78;;;-0.31;100.00
13414;BME280;6778;48.136;11.386;2023-02-15T02:01:21;96595.75;;;-0.21;100.00
13414;BME280;6778;48.136;11.386;2023-02-15T02:04:00;96587.00;;;-0.52;100.00
13414;BME280;6778;48.136;11.386;2023-02-15T02:06:33;96596.13;;;-0.37;100.00
13414;BME280;6778;48.136;11.386;2023-02-15T02:09:08;96589.34;;;-0.49;100.00
13414;BME280;6778;48.136;11.386;2023-02-15T02:11:44;96584.31;;;-0.50;100.00
13414;BME280;6778;48.136;11.386;2023-02-15T02:14:15;96580.22;;;-0.42;100.00
13414;BME280;6778;48.136;11.386;2023-02-15T02:16:54;96580.09;;;-0.29;100.00
13414;BME280;6778;48.136;11.386;2023-02-15T02:23:13;96580.78;;;-0.16;100.00
13414;BME280;6778;48.136;11.386;2023-02-15T02:26:24;96579.28;;;-0.41;100.00
13414;BME280;6778;48.136;11.386;2023-02-15T02:29:36;96572.97;;;-0.25;100.00
13414;BME280;6778;48.136;11.386;2023-02-15T02:35:31;96576.81;;;-0.42;100.00
13414;BME280;6778;48.136;11.386;2023-02-15T02:38:10;96571.69;;;-0.65;100.00
13414;BME280;6778;48.136;11.386;2023-02-15T02:40:52;96568.66;;;-0.47;100.00
13414;BME280;6778;48.136;11.386;2023-02-15T02:43:33;96563.16;;;-0.54;100.00
13414;BME280;6778;48.136;11.386;2023-02-15T02:46:14;96560.47;;;-0.52;100.00
13414;BME280;6778;48.136;11.386;2023-02-15T02:48:49;96561.63;;;-0.57;100.00
13414;BME280;6778;48.136;11.386;2023-02-15T02:51:22;96571.91;;;-0.34;100.00
13414;BME280;6778;48.136;11.386;2023-02-15T02:53:57;96566.19;;;-0.26;100.00
13414;BME280;6778;48.136;11.386;2023-02-15T02:56:32;96571.69;;;-0.20;100.00
13414;BME280;6778;48.136;11.386;2023-02-15T02:59:15;96569.78;;;-0.29;100.00
13414;BME280;6778;48.136;11.386;2023-02-15T03:01:52;96570.34;;;-0.14;100.00
13414;BME280;6778;48.136;11.386;2023-02-15T03:04:27;96567.69;;;-0.13;100.00
13414;BME280;6778;48.136;11.386;2023-02-15T03:07:07;96565.69;;;-0.09;100.00
13414;BME280;6778;48.136;11.386;2023-02-15T03:09:44;96565.13;;;-0.13;100.00
13414;BME280;6778;48.136;11.386;2023-02-15T03:12:19;96563.34;;;-0.12;100.00
13414;BME280;6778;48.136;11.386;2023-02-15T03:14:56;96566.28;;;-0.06;100.00
13414;BME280;6778;48.136;11.386;2023-02-15T03:17:32;96564.72;;;-0.08;100.00
13414;BME280;6778;48.136;11.386;2023-02-15T03:20:09;96557.81;;;0.04;100.00
13414;BME280;6778;48.136;11.386;2023-02-15T03:22:49;96556.19;;;-0.09;100.00
13414;BME280;6778;48.136;11.386;2023-02-15T03:25:25;96558.53;;;-0.06;100.00
13414;BME280;6778;48.136;11.386;2023-02-15T03:28:01;96561.56;;;-0.01;100.00
13414;BME280;6778;48.136;11.386;2023-02-15T03:30:36;96556.88;;;0.05;100.00
13414;BME280;6778;48.136;11.386;2023-02-15T03:33:09;96563.22;;;0.01;100.00
13414;BME280;6778;48.136;11.386;2023-02-15T03:35:49;96558.16;;;0.10;100.00
13414;BME280;6778;48.136;11.386;2023-02-15T03:38:34;96563.00;;;-0.19;100.00
13414;BME280;6778;48.136;11.386;2023-02-15T03:41:07;96553.75;;;0.01;100.00
13414;BME280;6778;48.136;11.386;2023-02-15T03:43:49;96556.75;;;0.06;100.00
13414;BME280;6778;48.136;11.386;2023-02-15T03:46:27;96561.47;;;0.01;100.00
13414;BME280;6778;48.136;11.386;2023-02-15T03:49:05;96563.69;;;-0.06;100.00
13414;BME280;6778;48.136;11.386;2023-02-15T03:51:41;96569.66;;;-0.05;100.00
13414;BME280;6778;48.136;11.386;2023-02-15T03:54:22;96565.19;;;-0.03;100.00
13414;BME280;6778;48.136;11.386;2023-02-15T03:57:09;96561.00;;;-0.04;100.00
13414;BME280;6778;48.136;11.386;2023-02-15T03:59:52;96570.81;;;0.02;100.00
13414;BME280;6778;48.136;11.386;2023-02-15T04:02:41;96561.81;;;-0.15;100.00
13414;BME280;6778;48.136;11.386;2023-02-15T04:05:14;96561.81;;;-0.15;100.00
13414;BME280;6778;48.136;11.386;2023-02-15T04:07:44;96564.53;;;-0.16;100.00
13414;BME280;6778;48.136;11.386;2023-02-15T04:10:17;96561.25;;;-0.30;100.00
13414;BME280;6778;48.136;11.386;2023-02-15T04:12:59;96559.03;;;-0.23;100.00
13414;BME280;6778;48.136;11.386;2023-02-15T04:15:30;96568.38;;;-0.11;100.00
13414;BME280;6778;48.136;11.386;2023-02-15T04:18:14;96567.44;;;-0.10;100.00
13414;BME280;6778;48.136;11.386;2023-02-15T04:20:44;96571.44;;;-0.17;100.00
13414;BME280;6778;48.136;11.386;2023-02-15T04:23:27;96569.53;;;-0.15;100.00
13414;BME280;6778;48.136;11.386;2023-02-15T04:26:12;96564.63;;;-0.07;100.00
13414;BME280;6778;48.136;11.386;2023-02-15T04:28:42;96564.31;;;-0.13;100.00
13414;BME280;6778;48.136;11.386;2023-02-15T04:31:12;96570.69;;;-0.08;100.00
13414;BME280;6778;48.136;11.386;2023-02-15T04:33:44;96569.31;;;-0.23;100.00
13414;BME280;6778;48.136;11.386;2023-02-15T04:36:15;96571.56;;;-0.18;100.00
13414;BME280;6778;48.136;11.386;2023-02-15T04:38:45;96565.47;;;-0.17;100.00
13414;BME280;6778;48.136;11.386;2023-02-15T04:41:17;96568.63;;;-0.25;100.00
13414;BME280;6778;48.136;11.386;2023-02-15T04:43:48;96564.31;;;-0.36;100.00
13414;BME280;6778;48.136;11.386;2023-02-15T04:46:18;96558.81;;;-0.20;100.00
13414;BME280;6778;48.136;11.386;2023-02-15T04:48:48;96558.59;;;-0.39;100.00
13414;BME280;6778;48.136;11.386;2023-02-15T04:51:18;96565.34;;;-0.72;100.00
13414;BME280;6778;48.136;11.386;2023-02-15T04:53:48;96568.88;;;-0.39;100.00
13414;BME280;6778;48.136;11.386;2023-02-15T04:56:22;96568.88;;;-0.39;100.00
13414;BME280;6778;48.136;11.386;2023-02-15T04:58:52;96565.00;;;-0.56;100.00
13414;BME280;6778;48.136;11.386;2023-02-15T05:01:21;96569.34;;;-0.57;100.00
13414;BME280;6778;48.136;11.386;2023-02-15T05:03:52;96573.66;;;-0.35;100.00
13414;BME280;6778;48.136;11.386;2023-02-15T05:06:25;96571.09;;;-0.46;100.00
13414;BME280;6778;48.136;11.386;2023-02-15T05:08:55;96561.97;;;-0.50;100.00
13414;BME280;6778;48.136;11.386;2023-02-15T05:11:28;96570.97;;;-0.44;100.00
13414;BME280;6778;48.136;11.386;2023-02-15T05:13:58;96566.41;;;-0.30;100.00
13414;BME280;6778;48.136;11.386;2023-02-15T05:16:29;96563.59;;;-0.26;100.00
13414;BME280;6778;48.136;11.386;2023-02-15T05:19:02;96569.69;;;-0.39;100.00
13414;BME280;6778;48.136;11.386;2023-02-15T05:21:34;96562.06;;;-0.07;100.00
13414;BME280;6778;48.136;11.386;2023-02-15T05:24:07;96563.69;;;-0.17;100.00
13414;BME280;6778;48.136;11.386;2023-02-15T05:26:53;96564.88;;;-0.55;100.00
13414;BME280;6778;48.136;11.386;2023-02-15T05:29:35;96566.41;;;-0.74;100.00
13414;BME280;6778;48.136;11.386;2023-02-15T05:32:05;96558.69;;;-0.86;100.00
13414;BME280;6778;48.136;11.386;2023-02-15T05:34:35;96564.53;;;-0.84;100.00
13414;BME280;6778;48.136;11.386;2023-02-15T05:37:06;96559.72;;;-0.99;100.00
13414;BME280;6778;48.136;11.386;2023-02-15T05:39:36;96573.16;;;-0.96;100.00
13414;BME280;6778;48.136;11.386;2023-02-15T05:42:09;96569.19;;;-0.89;100.00
13414;BME280;6778;48.136;11.386;2023-02-15T05:44:38;96571.38;;;-1.06;100.00
13414;BME280;6778;48.136;11.386;2023-02-15T05:47:08;96575.19;;;-0.66;100.00
13414;BME280;6778;48.136;11.386;2023-02-15T05:49:39;96584.09;;;-0.47;100.00
13414;BME280;6778;48.136;11.386;2023-02-15T05:52:09;96574.97;;;-0.40;100.00
13414;BME280;6778;48.136;11.386;2023-02-15T05:54:39;96571.81;;;-0.33;100.00
13414;BME280;6778;48.136;11.386;2023-02-15T05:57:12;96579.88;;;-0.37;100.00
13414;BME280;6778;48.136;11.386;2023-02-15T05:59:42;96582.66;;;-0.63;100.00
13414;BME280;6778;48.136;11.386;2023-02-15T06:02:12;96589.56;;;-0.41;100.00
13414;BME280;6778;48.136;11.386;2023-02-15T06:04:42;96584.31;;;-0.39;100.00
13414;BME280;6778;48.136;11.386;2023-02-15T06:07:12;96594.84;;;-0.42;100.00
13414;BME280;6778;48.136;11.386;2023-02-15T06:09:42;96581.50;;;-0.81;100.00
13414;BME280;6778;48.136;11.386;2023-02-15T06:12:14;96584.66;;;-0.55;100.00
13414;BME280;6778;48.136;11.386;2023-02-15T06:14:44;96590.16;;;-0.60;100.00
13414;BME280;6778;48.136;11.386;2023-02-15T06:17:14;96591.09;;;-0.72;100.00
13414;BME280;6778;48.136;11.386;2023-02-15T06:19:44;96584.19;;;-1.18;100.00
13414;BME280;6778;48.136;11.386;2023-02-15T06:22:15;96585.47;;;-1.23;100.00
13414;BME280;6778;48.136;11.386;2023-02-15T06:24:47;96583.19;;;-1.15;100.00
13414;BME280;6778;48.136;11.386;2023-02-15T06:27:20;96586.56;;;-1.03;100.00
13414;BME280;6778;48.136;11.386;2023-02-15T06:29:50;96583.50;;;-1.08;100.00
13414;BME280;6778;48.136;11.386;2023-02-15T06:32:20;96587.97;;;-1.11;100.00
13414;BME280;6778;48.136;11.386;2023-02-15T06:34:50;96590.22;;;-0.95;100.00
13414;BME280;6778;48.136;11.386;2023-02-15T06:37:21;96597.22;;;-0.97;100.00
13414;BME280;6778;48.136;11.386;2023-02-15T06:39:51;96594.47;;;-1.18;100.00
13414;BME280;6778;48.136;11.386;2023-02-15T06:42:24;96593.97;;;-1.34;100.00
13414;BME280;6778;48.136;11.386;2023-02-15T06:44:54;96602.38;;;-1.32;100.00
13414;BME280;6778;48.136;11.386;2023-02-15T06:47:28;96603.94;;;-1.18;100.00
13414;BME280;6778;48.136;11.386;2023-02-15T06:49:58;96605.88;;;-0.98;100.00
13414;BME280;6778;48.136;11.386;2023-02-15T06:52:28;96599.72;;;-0.84;100.00
13414;BME280;6778;48.136;11.386;2023-02-15T06:54:58;96606.72;;;-0.75;100.00
13414;BME280;6778;48.136;11.386;2023-02-15T06:57:30;96605.22;;;-0.77;100.00
13414;BME280;6778;48.136;11.386;2023-02-15T07:00:00;96598.56;;;-0.80;100.00
13414;BME280;6778;48.136;11.386;2023-02-15T07:02:33;96598.75;;;-0.83;99.93
13414;BME280;6778;48.136;11.386;2023-02-15T07:05:02;96598.19;;;-0.75;99.51
13414;BME280;6778;48.136;11.386;2023-02-15T07:07:32;96602.53;;;-0.76;99.19
13414;BME280;6778;48.136;11.386;2023-02-15T07:10:04;96608.28;;;-0.72;99.13
13414;BME280;6778;48.136;11.386;2023-02-15T07:12:37;96595.16;;;-0.69;99.09
13414;BME280;6778;48.136;11.386;2023-02-15T07:15:15;96608.53;;;-0.53;98.78
13414;BME280;6778;48.136;11.386;2023-02-15T07:17:48;96604.06;;;-0.51;98.45
13414;BME280;6778;48.136;11.386;2023-02-15T07:20:21;96604.31;;;-0.43;98.48
13414;BME280;6778;48.136;11.386;2023-02-15T07:22:51;96596.72;;;-0.44;97.87
13414;BME280;6778;48.136;11.386;2023-02-15T07:25:22;96605.78;;;-0.85;98.81
13414;BME280;6778;48.136;11.386;2023-02-15T07:27:58;96605.88;;;-0.98;100.00
13414;BME280;6778;48.136;11.386;2023-02-15T07:30:28;96607.66;;;-0.76;100.00
13414;BME280;6778;48.136;11.386;2023-02-15T07:32:59;96600.22;;;-0.45;99.63
13414;BME280;6778;48.136;11.386;2023-02-15T07:35:46;96609.56;;;-0.56;99.54
13414;BME280;6778;48.136;11.386;2023-02-15T07:38:17;96599.72;;;-0.73;99.90
13414;BME280;6778;48.136;11.386;2023-02-15T07:40:48;96602.31;;;-0.62;99.57
13414;BME280;6778;48.136;11.386;2023-02-15T07:43:20;96599.75;;;-0.50;99.19
13414;BME280;6778;48.136;11.386;2023-02-15T07:45:50;96600.69;;;-0.51;98.48
13414;BME280;6778;48.136;11.386;2023-02-15T07:48:22;96585.47;;;-0.43;97.97
13414;BME280;6778;48.136;11.386;2023-02-15T07:50:52;96588.88;;;-0.32;98.10
13414;BME280;6778;48.136;11.386;2023-02-15T07:53:25;96582.53;;;-0.28;98.29
13414;BME280;6778;48.136;11.386;2023-02-15T07:56:02;96585.34;;;-0.08;97.91
13414;BME280;6778;48.136;11.386;2023-02-15T07:58:35;96583.47;;;-0.06;97.16
13414;BME280;6778;48.136;11.386;2023-02-15T08:01:19;96581.47;;;-0.03;97.23
13414;BME280;6778;48.136;11.386;2023-02-15T08:03:51;96578.56;;;-0.09;97.26
13414;BME280;6778;48.136;11.386;2023-02-15T08:06:25;96585.25;;;-0.29;97.93
13414;BME280;6778;48.136;11.386;2023-02-15T08:08:55;96580.31;;;-0.10;97.73
13414;BME280;6778;48.136;11.386;2023-02-15T08:11:27;96578.81;;;-0.12;96.96
13414;BME280;6778;48.136;11.386;2023-02-15T08:14:04;96580.75;;;0.07;96.18
13414;BME280;6778;48.136;11.386;2023-02-15T08:16:36;96578.69;;;-0.11;97.38
13414;BME280;6778;48.136;11.386;2023-02-15T08:19:08;96579.41;;;-0.31;96.17
13414;BME280;6778;48.136;11.386;2023-02-15T08:21:40;96572.25;;;-0.28;97.19
13414;BME280;6778;48.136;11.386;2023-02-15T08:24:13;96569.38;;;0.20;97.25
13414;BME280;6778;48.136;11.386;2023-02-15T08:26:44;96570.72;;;1.61;97.09
13414;BME280;6778;48.136;11.386;2023-02-15T08:29:21;96577.00;;;1.38;92.28
13414;BME280;6778;48.136;11.386;2023-02-15T08:31:57;96579.03;;;1.64;92.83
13414;BME280;6778;48.136;11.386;2023-02-15T08:34:32;96575.94;;;1.71;90.22
13414;BME280;6778;48.136;11.386;2023-02-15T08:37:04;96572.94;;;1.75;90.21
13414;BME280;6778;48.136;11.386;2023-02-15T08:39:38;96578.00;;;2.27;88.83
13414;BME280;6778;48.136;11.386;2023-02-15T08:42:12;96578.00;;;2.17;87.98
13414;BME280;6778;48.136;11.386;2023-02-15T08:44:47;96580.88;;;1.22;88.35
13414;BME280;6778;48.136;11.386;2023-02-15T08:47:17;96579.97;;;1.33;88.66
13414;BME280;6778;48.136;11.386;2023-02-15T08:49:49;96585.13;;;1.33;90.36
13414;BME280;6778;48.136;11.386;2023-02-15T08:52:18;96582.28;;;1.15;89.41
13414;BME280;6778;48.136;11.386;2023-02-15T08:54:49;96588.59;;;1.01;90.21
13414;BME280;6778;48.136;11.386;2023-02-15T08:57:22;96580.25;;;1.30;90.01
13414;BME280;6778;48.136;11.386;2023-02-15T08:59:54;96581.03;;;1.51;89.75
13414;BME280;6778;48.136;11.386;2023-02-15T09:02:24;96580.53;;;2.07;87.14
13414;BME280;6778;48.136;11.386;2023-02-15T09:04:57;96576.66;;;2.90;84.04
13414;BME280;6778;48.136;11.386;2023-02-15T09:07:30;96578.78;;;3.34;81.63
13414;BME280;6778;48.136;11.386;2023-02-15T09:10:00;96574.41;;;3.24;79.28
13414;BME280;6778;48.136;11.386;2023-02-15T09:12:30;96563.19;;;4.89;72.74
13414;BME280;6778;48.136;11.386;2023-02-15T09:15:03;96562.66;;;5.03;72.91
13414;BME280;6778;48.136;11.386;2023-02-15T09:17:33;96559.66;;;7.26;65.92
13414;BME280;6778;48.136;11.386;2023-02-15T09:20:04;96548.94;;;7.76;62.73
13414;BME280;6778;48.136;11.386;2023-02-15T09:22:35;96561.94;;;9.46;56.42
13414;BME280;6778;48.136;11.386;2023-02-15T09:25:05;96566.00;;;9.49;54.16
13414;BME280;6778;48.136;11.386;2023-02-15T09:27:35;96560.38;;;8.54;55.76
13414;BME280;6778;48.136;11.386;2023-02-15T09:30:10;96565.00;;;9.12;55.55
13414;BME280;6778;48.136;11.386;2023-02-15T09:32:41;96557.94;;;8.98;55.55
13414;BME280;6778;48.136;11.386;2023-02-15T09:35:12;96561.13;;;9.08;57.14
13414;BME280;6778;48.136;11.386;2023-02-15T09:37:42;96561.81;;;8.79;57.79
13414;BME280;6778;48.136;11.386;2023-02-15T09:40:16;96560.25;;;8.93;57.29
13414;BME280;6778;48.136;11.386;2023-02-15T09:43:19;96558.22;;;9.03;57.30
13414;BME280;6778;48.136;11.386;2023-02-15T09:46:10;96561.19;;;8.77;57.72
13414;BME280;6778;48.136;11.386;2023-02-15T09:48:49;96558.38;;;9.24;56.64
13414;BME280;6778;48.136;11.386;2023-02-15T09:51:42;96554.28;;;10.55;52.61
13414;BME280;6778;48.136;11.386;2023-02-15T09:54:30;96556.63;;;12.33;48.75
13414;BME280;6778;48.136;11.386;2023-02-15T09:57:10;96561.59;;;14.14;44.91
13414;BME280;6778;48.136;11.386;2023-02-15T09:59:58;96553.31;;;14.94;43.63
13414;BME280;6778;48.136;11.386;2023-02-15T10:02:55;96560.91;;;13.41;45.31
13414;BME280;6778;48.136;11.386;2023-02-15T10:05:43;96551.19;;;15.09;42.39
13414;BME280;6778;48.136;11.386;2023-02-15T10:08:41;96551.53;;;14.88;42.38
13414;BME280;6778;48.136;11.386;2023-02-15T10:11:28;96560.91;;;15.15;42.31
13414;BME280;6778;48.136;11.386;2023-02-15T10:17:34;96560.09;;;16.08;39.97
13414;BME280;6778;48.136;11.386;2023-02-15T10:20:21;96552.78;;;17.18;37.93
13414;BME280;6778;48.136;11.386;2023-02-15T10:23:11;96557.69;;;17.03;38.21
13414;BME280;6778;48.136;11.386;2023-02-15T10:25:54;96555.47;;;17.30;37.84
13414;BME280;6778;48.136;11.386;2023-02-15T10:28:41;96551.84;;;17.78;37.20
13414;BME280;6778;48.136;11.386;2023-02-15T10:31:23;96555.91;;;17.27;36.43
13414;BME280;6778;48.136;11.386;2023-02-15T10:34:12;96555.91;;;17.27;38.03
13414;BME280;6778;48.136;11.386;2023-02-15T10:37:26;96552.53;;;17.85;36.78
13414;BME280;6778;48.136;11.386;2023-02-15T10:40:11;96541.75;;;17.22;37.84
13414;BME280;6778;48.136;11.386;2023-02-15T10:42:57;96540.19;;;17.79;37.05
13414;BME280;6778;48.136;11.386;2023-02-15T10:45:48;96534.06;;;17.43;37.78
13414;BME280;6778;48.136;11.386;2023-02-15T10:48:35;96536.66;;;18.66;36.50
13414;BME280;6778;48.136;11.386;2023-02-15T10:51:17;96530.38;;;17.44;37.47
13414;BME280;6778;48.136;11.386;2023-02-15T10:54:09;96527.81;;;18.48;36.93
13414;BME280;6778;48.136;11.386;2023-02-15T10:56:50;96515.88;;;18.34;36.26
13414;BME280;6778;48.136;11.386;2023-02-15T10:59:44;96517.69;;;17.70;37.39
13414;BME280;6778;48.136;11.386;2023-02-15T11:02:28;96510.19;;;16.78;37.87
13414;BME280;6778;48.136;11.386;2023-02-15T11:05:20;96511.25;;;17.66;37.60
13414;BME280;6778;48.136;11.386;2023-02-15T11:07:59;96504.19;;;17.25;38.11
13414;BME280;6778;48.136;11.386;2023-02-15T11:10:38;96499.06;;;15.05;42.31
13414;BME280;6778;48.136;11.386;2023-02-15T11:13:14;96498.94;;;14.61;43.18
13414;BME280;6778;48.136;11.386;2023-02-15T11:15:51;96491.41;;;14.27;44.68
13414;BME280;6778;48.136;11.386;2023-02-15T11:18:28;96486.88;;;14.40;45.03
13414;BME280;6778;48.136;11.386;2023-02-15T11:21:03;96495.69;;;12.77;47.78
13414;BME280;6778;48.136;11.386;2023-02-15T11:23:41;96490.50;;;12.16;50.52
13414;BME280;6778;48.136;11.386;2023-02-15T11:26:21;96491.84;;;12.99;49.85
13414;BME280;6778;48.136;11.386;2023-02-15T11:28:58;96485.66;;;12.26;51.09
13414;BME280;6778;48.136;11.386;2023-02-15T11:31:41;96476.28;;;11.62;52.40
13414;BME280;6778;48.136;11.386;2023-02-15T11:34:20;96475.50;;;12.03;52.65
13414;BME280;6778;48.136;11.386;2023-02-15T11:36:55;96474.22;;;11.23;55.12
13414;BME280;6778;48.136;11.386;2023-02-15T11:39:29;96461.84;;;11.80;55.37
13414;BME280;6778;48.136;11.386;2023-02-15T11:42:11;96455.56;;;11.05;56.28
13414;BME280;6778;48.136;11.386;2023-02-15T11:45:01;96449.81;;;11.23;56.84
13414;BME280;6778;48.136;11.386;2023-02-15T11:47:33;96449.31;;;10.78;56.88
13414;BME280;6778;48.136;11.386;2023-02-15T11:50:04;96449.81;;;10.66;57.87
13414;BME280;6778;48.136;11.386;2023-02-15T11:52:35;96441.09;;;10.38;60.02
13414;BME280;6778;48.136;11.386;2023-02-15T11:55:12;96440.16;;;10.46;60.20
13414;BME280;6778;48.136;11.386;2023-02-15T11:57:52;96438.97;;;9.91;61.21
13414;BME280;6778;48.136;11.386;2023-02-15T12:00:32;96430.59;;;10.02;61.76
13414;BME280;6778;48.136;11.386;2023-02-15T12:03:16;96426.91;;;10.11;61.11
13414;BME280;6778;48.136;11.386;2023-02-15T12:05:55;96413.28;;;10.37;60.48
13414;BME280;6778;48.136;11.386;2023-02-15T12:08:37;96411.81;;;10.13;59.52
13414;BME280;6778;48.136;11.386;2023-02-15T12:11:11;96412.41;;;10.15;58.92
13414;BME280;6778;48.136;11.386;2023-02-15T12:13:58;96410.06;;;9.99;60.74
13414;BME280;6778;48.136;11.386;2023-02-15T12:16:33;96409.28;;;9.83;60.85
13414;BME280;6778;48.136;11.386;2023-02-15T12:19:05;96404.53;;;9.72;61.38
13414;BME280;6778;48.136;11.386;2023-02-15T12:21:44;96396.72;;;9.57;62.35
13414;BME280;6778;48.136;11.386;2023-02-15T12:24:19;96402.38;;;9.61;62.45
13414;BME280;6778;48.136;11.386;2023-02-15T12:27:00;96393.38;;;9.34;63.57
13414;BME280;6778;48.136;11.386;2023-02-15T12:29:42;96393.41;;;9.19;64.87
13414;BME280;6778;48.136;11.386;2023-02-15T12:32:19;96396.03;;;9.05;65.58
13414;BME280;6778;48.136;11.386;2023-02-15T12:34:59;96384.56;;;9.20;64.86
13414;BME280;6778;48.136;11.386;2023-02-15T12:37:31;96388.56;;;9.01;65.19
13414;BME280;6778;48.136;11.386;2023-02-15T12:40:19;96382.94;;;9.19;65.24
13414;BME280;6778;48.136;11.386;2023-02-15T12:42:50;96373.69;;;9.02;66.27
13414;BME280;6778;48.136;11.386;2023-02-15T12:45:26;96373.59;;;8.95;66.76
13414;BME280;6778;48.136;11.386;2023-02-15T12:48:15;96373.31;;;9.05;66.44
13414;BME280;6778;48.136;11.386;2023-02-15T12:50:46;96375.81;;;9.13;66.49
13414;BME280;6778;48.136;11.386;2023-02-15T12:53:23;96374.50;;;9.02;66.59
13414;BME280;6778;48.136;11.386;2023-02-15T12:56:02;96373.47;;;9.18;66.11
13414;BME280;6778;48.136;11.386;2023-02-15T12:58:33;96363.75;;;9.12;66.36
13414;BME280;6778;48.136;11.386;2023-02-15T13:01:11;96359.06;;;9.08;66.34
13414;BME280;6778;48.136;11.386;2023-02-15T13:04:13;96356.28;;;9.09;65.98
13414;BME280;6778;48.136;11.386;2023-02-15T13:06:49;96358.44;;;8.91;66.85
13414;BME280;6778;48.136;11.386;2023-02-15T13:09:26;96360.16;;;8.84;67.11
13414;BME280;6778;48.136;11.386;2023-02-15T13:12:11;96351.84;;;8.80;67.74
13414;BME280;6778;48.136;11.386;2023-02-15T13:14:46;96360.44;;;8.89;67.83
13414;BME280;6778;48.136;11.386;2023-02-15T13:17:25;96344.47;;;8.98;67.61
13414;BME280;6778;48.136;11.386;2023-02-15T13:20:00;96349.97;;;8.89;68.62
13414;BME280;6778;48.136;11.386;2023-02-15T13:22:39;96345.09;;;8.86;69.53
13414;BME280;6778;48.136;11.386;2023-02-15T13:25:17;96349.94;;;8.59;69.40
13414;BME280;6778;48.136;11.386;2023-02-15T13:27:54;96341.13;;;8.60;69.96
13414;BME280;6778;48.136;11.386;2023-02-15T13:30:27;96338.53;;;8.60;69.69
13414;BME280;6778;48.136;11.386;2023-02-15T13:33:05;96339.16;;;8.62;69.87
13414;BME280;6778;48.136;11.386;2023-02-15T13:35:42;96341.19;;;8.52;70.02
13414;BME280;6778;48.136;11.386;2023-02-15T13:38:42;96339.47;;;8.44;71.03
13414;BME280;6778;48.136;11.386;2023-02-15T13:41:20;96331.41;;;8.54;70.81
13414;BME280;6778;48.136;11.386;2023-02-15T13:44:03;96333.13;;;8.62;71.21
13414;BME280;6778;48.136;11.386;2023-02-15T13:46:49;96335.81;;;8.54;71.68
13414;BME280;6778;48.136;11.386;2023-02-15T13:49:38;96335.16;;;8.52;71.73
13414;BME280;6778;48.136;11.386;2023-02-15T13:52:19;96337.97;;;8.50;71.14
13414;BME280;6778;48.136;11.386;2023-02-15T13:55:16;96345.78;;;8.35;71.39